Time;durP1;ratioP1;P1;durP2;ratioP2;P2;SDS_P1;SDS_P2;PMS_P1;PMS_P2;Temp;Humidity;BMP_temperature;BMP_pressure;BME280_temperature;BME280_humidity;BME280_pressure;Samples;Min_cycle;Max_cycle;Signal;HPM_P1;HPM_P2
2023/01/29 00:01:01;;;;;;;14.30;10.13;;;;;;;;;;2096105;28;20466;-90
2023/01/29 00:02:03;;;;;;;16.90;10.98;;;;;;;;;;2089991;28;20123;-91
2023/01/29 00:03:06;;;;;;;13.90;10.55;;;;;;;;;;2096774;28;20028;-90
2023/01/29 00:04:07;;;;;;;14.70;10.07;;;;;;;;;;2096658;28;20036;-92
2023/01/29 00:05:07;;;;;;;;;;;;;;;;;;2088691;28;20158;-91
2023/01/29 00:06:11;;;;;;;16.75;11.40;;;;;;;;;;1739135;28;10002571;-92
2023/01/29 00:07:12;;;;;;;13.85;10.30;;;;;;;;;;2098452;28;20327;-92
2023/01/29 00:08:12;;;;;;;;;;;;;;;;;;2096693;28;20455;-91
2023/01/29 00:09:12;;;;;;;14.10;10.37;;;;;;;;;;2088414;28;19908;-90
2023/01/29 00:10:13;;;;;;;;;;;;;;;;;;2088750;28;20464;-90
2023/01/29 00:11:15;;;;;;;16.23;11.00;;;;;;;;;;2096491;28;19916;-91
2023/01/29 00:12:16;;;;;;;14.48;10.05;;;;;;;;;;2088103;28;20755;-91
2023/01/29 00:13:19;;;;;;;;;;;;;;;;;;2097142;28;20025;-90
2023/01/29 00:14:19;;;;;;;14.80;10.55;;;;;;;;;;2096780;28;19908;-91
2023/01/29 00:15:19;;;;;;;;;;;;;;;;;;2097483;28;20028;-90
2023/01/29 00:16:20;;;;;;;12.43;8.93;;;;;;;;;;2098597;28;19977;-92
2023/01/29 00:17:20;;;;;;;11.10;8.70;;;;;;;;;;2100148;28;20062;-93
2023/01/29 00:18:21;;;;;;;13.30;8.82;;;;;;;;;;2096129;28;20029;-92
2023/01/29 00:19:22;;;;;;;;;;;;;;;;;;2098532;28;20075;-91
2023/01/29 00:20:22;;;;;;;15.00;9.13;;;;;;;;;;2096447;28;19916;-92
2023/01/29 00:22:33;;;;;;;13.63;9.13;;;;;;;;;;2329189;22;20021;-92
2023/01/29 00:23:33;;;;;;;;;;;;;;;;;;2097808;28;20099;-92
2023/01/29 00:24:34;;;;;;;11.93;8.73;;;;;;;;;;2097336;28;19915;-93
2023/01/29 00:25:34;;;;;;;12.73;8.82;;;;;;;;;;2096113;28;20020;-92
2023/01/29 00:26:37;;;;;;;;;;;;;;;;;;2088512;28;20375;-92
2023/01/29 00:27:38;;;;;;;12.75;8.88;;;;;;;;;;2096650;28;19955;-91
2023/01/29 00:28:38;;;;;;;;;;;;;;;;;;2096877;28;20075;-92
2023/01/29 00:29:39;;;;;;;15.93;10.27;;;;;;;;;;2096164;28;19950;-92
2023/01/29 00:30:40;;;;;;;15.70;11.27;;;;;;;;;;2095081;28;20020;-89
2023/01/29 00:31:43;;;;;;;17.80;11.30;;;;;;;;;;2095421;28;20028;-91
2023/01/29 00:32:44;;;;;;;18.30;10.75;;;;;;;;;;2096879;28;20033;-92
2023/01/29 00:33:45;;;;;;;;;;;;;;;;;;2097713;28;20111;-92
2023/01/29 00:34:45;;;;;;;17.88;12.57;;;;;;;;;;2106572;28;19920;-91
2023/01/29 00:35:45;;;;;;;;;;;;;;;;;;2107390;28;20028;-91
2023/01/29 00:36:46;;;;;;;18.60;12.00;;;;;;;;;;2107382;28;19931;-92
2023/01/29 00:37:46;;;;;;;;;;;;;;;;;;2100307;28;20471;-91
2023/01/29 00:38:53;;;;;;;18.67;11.10;;;;;;;;;;2100104;28;20018;-92
2023/01/29 00:39:54;;;;;;;17.48;11.70;;;;;;;;;;2090969;28;20036;-93
2023/01/29 00:44:59;;;;;;;15.30;9.55;;;;;;;;;;2097735;28;20440;-93
2023/01/29 00:46:00;;;;;;;17.13;10.52;;;;;;;;;;2100650;28;20027;-92
2023/01/29 00:47:00;;;;;;;;;;;;;;;;;;2096826;28;20063;-93
2023/01/29 00:48:04;;;;;;;13.17;10.03;;;;;;;;;;2088861;28;19913;-92
2023/01/29 00:49:06;;;;;;;14.20;9.75;;;;;;;;;;2096564;28;20021;-92
2023/01/29 00:50:09;;;;;;;12.98;8.63;;;;;;;;;;2096157;28;20020;-90
2023/01/29 00:51:10;;;;;;;14.85;9.98;;;;;;;;;;2096396;28;20537;-92
2023/01/29 00:52:31;;;;;;;;;;;;;;;;;;2096715;28;20040;-93
2023/01/29 00:53:31;;;;;;;12.65;9.10;;;;;;;;;;2096680;28;20004;-92
2023/01/29 00:54:31;;;;;;;;;;;;;;;;;;2102088;28;20024;-92
2023/01/29 00:55:32;;;;;;;18.00;11.30;;;;;;;;;;2107152;28;19904;-93
2023/01/29 00:56:34;;;;;;;;;;;;;;;;;;2099169;28;20029;-93
2023/01/29 00:57:36;;;;;;;11.88;8.23;;;;;;;;;;2097462;28;20023;-92
2023/01/29 00:58:39;;;;;;;14.95;10.18;;;;;;;;;;2100725;28;20108;-93
2023/01/29 00:59:39;;;;;;;15.63;9.73;;;;;;;;;;2090402;28;20522;-92
2023/01/29 01:00:40;;;;;;;;;;;;;;;;;;2097395;28;20126;-92
2023/01/29 01:03:05;;;;;;;17.05;10.70;;;;;;;;;;2097169;28;20040;-93
2023/01/29 01:04:13;;;;;;;18.52;12.30;;;;;;;;;;2096228;28;20020;-93
2023/01/29 01:05:20;;;;;;;21.17;12.50;;;;;;;;;;2089293;28;20138;-93
2023/01/29 01:06:21;;;;;;;14.93;9.63;;;;;;;;;;2099507;28;20038;-94
2023/01/29 01:07:21;;;;;;;;;;;;;;;;;;2097118;28;20024;-92
2023/01/29 01:11:06;;;;;;;16.05;10.40;;;;;;;;;;2097997;28;20029;-92
2023/01/29 01:12:08;;;;;;;12.55;8.68;;;;;;;;;;2097285;28;20032;-94
2023/01/29 01:13:09;;;;;;;11.13;8.25;;;;;;;;;;2091372;28;20480;-91
2023/01/29 01:14:09;;;;;;;;;;;;;;;;;;2104590;28;20048;-91
2023/01/29 01:15:10;;;;;;;10.87;8.30;;;;;;;;;;2097958;28;19942;-91
2023/01/29 01:16:15;;;;;;;;;;;;;;;;;;2088682;28;20165;-92
2023/01/29 01:17:16;;;;;;;11.15;7.28;;;;;;;;;;2088885;28;20398;-92
2023/01/29 01:18:23;;;;;;;;;;;;;;;;;;2089236;28;20079;-93
2023/01/29 01:19:24;;;;;;;11.80;8.30;;;;;;;;;;2091361;28;20379;-92
2023/01/29 01:20:25;;;;;;;;;;;;;;;;;;2090798;28;20025;-92
2023/01/29 01:21:26;;;;;;;;;;;;;;;;;;2090730;28;19916;-93
2023/01/29 01:22:26;;;;;;;11.17;7.10;;;;;;;;;;2090928;28;19909;-93
2023/01/29 01:23:27;;;;;;;;;;;;;;;;;;2093384;28;20471;-91
2023/01/29 01:24:27;;;;;;;10.13;7.10;;;;;;;;;;2097495;28;19924;-92
2023/01/29 01:25:28;;;;;;;9.73;7.78;;;;;;;;;;2099409;28;20021;-91
2023/01/29 01:26:28;;;;;;;;;;;;;;;;;;2093625;28;20064;-91
2023/01/29 01:27:29;;;;;;;10.33;8.50;;;;;;;;;;2089301;28;19917;-92
2023/01/29 01:28:29;;;;;;;;;;;;;;;;;;2089781;28;20021;-92
2023/01/29 01:29:30;;;;;;;10.63;8.17;;;;;;;;;;2097906;28;19919;-91
2023/01/29 01:30:33;;;;;;;;;;;;;;;;;;2098212;28;20039;-91
2023/01/29 01:31:34;;;;;;;9.55;7.45;;;;;;;;;;1740270;28;10214097;-91
2023/01/29 01:32:36;;;;;;;;;;;;;;;;;;2098318;28;20614;-92
2023/01/29 01:33:37;;;;;;;10.23;7.75;;;;;;;;;;2097787;28;19931;-92
2023/01/29 01:34:40;;;;;;;;;;;;;;;;;;2098641;28;20028;-91
2023/01/29 01:35:40;;;;;;;12.63;8.23;;;;;;;;;;2098561;28;19957;-93
2023/01/29 01:36:40;;;;;;;;;;;;;;;;;;2098468;28;20110;-92
2023/01/29 01:37:41;;;;;;;10.25;8.00;;;;;;;;;;2089634;28;19915;-92
2023/01/29 01:38:47;;;;;;;;;;;;;;;;;;2098160;28;20518;-92
2023/01/29 01:39:50;;;;;;;10.40;8.23;;;;;;;;;;2090255;28;19913;-92
2023/01/29 01:40:50;;;;;;;11.63;7.95;;;;;;;;;;2089897;28;20017;-91
2023/01/29 01:41:54;;;;;;;;;;;;;;;;;;2098806;28;20074;-92
2023/01/29 01:42:57;;;;;;;12.93;8.82;;;;;;;;;;2097795;28;20393;-92
2023/01/29 01:44:00;;;;;;;10.52;8.30;;;;;;;;;;2089859;28;20523;-92
2023/01/29 01:45:06;;;;;;;11.95;7.93;;;;;;;;;;2098306;28;20059;-92
2023/01/29 01:46:08;;;;;;;11.27;8.00;;;;;;;;;;2101375;28;20112;-91
2023/01/29 01:47:09;;;;;;;10.90;7.97;;;;;;;;;;2097520;28;20028;-91
2023/01/29 01:48:21;;;;;;;;;;;;;;;;;;2089760;28;20485;-92
2023/01/29 01:49:23;;;;;;;9.68;7.63;;;;;;;;;;2091287;28;19909;-92
2023/01/29 01:50:42;;;;;;;11.60;7.85;;;;;;;;;;2089971;28;20148;-91
2023/01/29 01:51:47;;;;;;;10.43;7.65;;;;;;;;;;2091823;28;20549;-89
2023/01/29 01:52:53;;;;;;;14.80;8.80;;;;;;;;;;2096954;28;20035;-91
2023/01/29 01:54:01;;;;;;;10.73;8.15;;;;;;;;;;2097522;28;20033;-92
2023/01/29 01:55:02;;;;;;;12.38;8.80;;;;;;;;;;2097532;28;20043;-91
2023/01/29 01:56:08;;;;;;;12.00;9.35;;;;;;;;;;2097855;28;20028;-93
2023/01/29 01:57:17;;;;;;;16.15;11.00;;;;;;;;;;2090432;28;20128;-92
2023/01/29 01:58:45;;;;;;;17.52;10.90;;;;;;;;;;2097904;28;20024;-91
2023/01/29 01:59:51;;;;;;;21.67;11.98;;;;;;;;;;2092483;28;20032;-90
2023/01/29 02:00:51;;;;;;;16.77;10.35;;;;;;;;;;2097941;28;20074;-92
2023/01/29 02:01:53;;;;;;;;;;;;;;;;;;2098482;28;20032;-91
2023/01/29 02:10:11;;;;;;;12.15;8.75;;;;;;;;;;2100212;28;20048;-91
2023/01/29 02:11:12;;;;;;;16.20;9.90;;;;;;;;;;2098734;28;20036;-91
2023/01/29 02:12:17;;;;;;;13.43;9.13;;;;;;;;;;1734957;28;10001870;-92
2023/01/29 02:13:21;;;;;;;11.20;8.35;;;;;;;;;;2081953;28;20040;-92
2023/01/29 02:14:22;;;;;;;15.98;11.05;;;;;;;;;;2097815;28;20039;-92
2023/01/29 02:15:22;;;;;;;;;;;;;;;;;;2098539;28;20052;-91
2023/01/29 02:16:23;;;;;;;12.37;9.13;;;;;;;;;;2097834;28;19959;-91
2023/01/29 02:17:24;;;;;;;12.80;8.88;;;;;;;;;;2097882;28;20029;-92
2023/01/29 02:18:24;;;;;;;;;;;;;;;;;;2097921;28;20148;-93
2023/01/29 02:19:36;;;;;;;11.93;8.90;;;;;;;;;;2098303;28;20232;-91
2023/01/29 02:20:41;;;;;;;12.23;9.23;;;;;;;;;;2097782;28;20032;-92
2023/01/29 02:21:44;;;;;;;12.57;8.70;;;;;;;;;;2089874;28;20032;-92
2023/01/29 02:22:59;;;;;;;13.07;8.82;;;;;;;;;;2089434;28;20036;-92
2023/01/29 02:24:31;;;;;;;12.70;8.77;;;;;;;;;;2090814;28;20033;-91
2023/01/29 02:25:43;;;;;;;17.13;11.95;;;;;;;;;;2097118;28;20077;-91
2023/01/29 02:26:48;;;;;;;13.52;9.65;;;;;;;;;;2090267;28;20358;-91
2023/01/29 02:27:48;;;;;;;14.13;9.65;;;;;;;;;;1740412;28;10001253;-91
2023/01/29 02:28:49;;;;;;;;;;;;;;;;;;2080955;28;20036;-92
2023/01/29 02:29:58;;;;;;;42.80;21.83;;;;;;;;;;2088627;28;19952;-91
2023/01/29 02:31:04;;;;;;;18.02;11.02;;;;;;;;;;2098171;28;20047;-92
2023/01/29 02:32:16;;;;;;;11.65;7.63;;;;;;;;;;2097217;28;20024;-91
2023/01/29 02:33:37;;;;;;;11.00;7.82;;;;;;;;;;1738667;28;10243862;-92
2023/01/29 02:36:17;;;;;;;11.80;8.48;;;;;;;;;;2097716;28;20036;-91
2023/01/29 02:37:19;;;;;;;12.20;8.70;;;;;;;;;;2097845;28;20150;-91
2023/01/29 02:38:44;;;;;;;11.57;8.77;;;;;;;;;;2097076;28;20115;-92
2023/01/29 02:39:52;;;;;;;10.23;7.72;;;;;;;;;;2097064;28;20077;-90
2023/01/29 02:41:19;;;;;;;12.18;8.57;;;;;;;;;;2097051;28;20431;-91
2023/01/29 02:42:29;;;;;;;10.27;7.55;;;;;;;;;;2051203;28;20097;-91
2023/01/29 02:43:59;;;;;;;9.50;8.40;;;;;;;;;;2088225;28;20127;-92
2023/01/29 02:45:09;;;;;;;11.05;8.18;;;;;;;;;;2060182;28;20034;-92
2023/01/29 02:46:41;;;;;;;12.43;8.55;;;;;;;;;;1714834;28;10001843;-92
2023/01/29 02:47:51;;;;;;;13.80;9.65;;;;;;;;;;2085165;28;20028;-92
2023/01/29 02:49:07;;;;;;;13.57;8.75;;;;;;;;;;2097355;28;20498;-91
2023/01/29 02:50:37;;;;;;;16.90;9.23;;;;;;;;;;2096493;28;20032;-91
2023/01/29 02:51:43;;;;;;;13.48;9.27;;;;;;;;;;2092239;28;20024;-90
2023/01/29 02:53:08;;;;;;;12.45;8.52;;;;;;;;;;2096479;28;20021;-91
2023/01/29 02:54:37;;;;;;;11.95;7.90;;;;;;;;;;2097083;28;20414;-90
2023/01/29 02:55:45;;;;;;;13.45;9.38;;;;;;;;;;2096948;28;20037;-90
2023/01/29 02:56:49;;;;;;;15.55;11.20;;;;;;;;;;2096961;28;20021;-90
2023/01/29 02:57:54;;;;;;;13.55;9.70;;;;;;;;;;2096718;28;20043;-90
2023/01/29 02:59:05;;;;;;;14.15;9.75;;;;;;;;;;2096228;28;20430;-90
2023/01/29 03:00:19;;;;;;;18.20;10.25;;;;;;;;;;2099399;28;20020;-91
2023/01/29 03:01:29;;;;;;;12.97;8.27;;;;;;;;;;1742356;28;10001668;-90
2023/01/29 03:02:36;;;;;;;13.30;8.88;;;;;;;;;;2089544;28;20362;-90
2023/01/29 03:03:40;;;;;;;11.93;8.32;;;;;;;;;;2097316;28;20078;-90
2023/01/29 03:04:49;;;;;;;12.35;8.07;;;;;;;;;;2096375;28;20537;-90
2023/01/29 03:06:01;;;;;;;10.50;7.82;;;;;;;;;;2088656;28;20025;-90
2023/01/29 03:07:39;;;;;;;12.50;8.18;;;;;;;;;;2089569;28;20188;-90
2023/01/29 03:08:44;;;;;;;14.18;10.43;;;;;;;;;;2096515;28;20294;-90
2023/01/29 03:09:49;;;;;;;13.85;9.60;;;;;;;;;;2096272;28;20347;-91
2023/01/29 03:10:59;;;;;;;14.20;9.50;;;;;;;;;;2096386;28;20041;-92
2023/01/29 03:12:32;;;;;;;12.63;8.45;;;;;;;;;;2096324;28;20107;-90
2023/01/29 03:14:01;;;;;;;12.75;8.85;;;;;;;;;;2092645;28;20498;-92
2023/01/29 03:15:15;;;;;;;12.70;8.98;;;;;;;;;;2094506;28;20494;-91
2023/01/29 03:16:22;;;;;;;12.80;9.55;;;;;;;;;;2099872;28;20017;-91
2023/01/29 03:17:31;;;;;;;13.95;9.82;;;;;;;;;;2098725;28;20040;-91
2023/01/29 03:18:42;;;;;;;16.02;10.05;;;;;;;;;;2091585;28;20378;-92
2023/01/29 03:19:45;;;;;;;16.52;10.23;;;;;;;;;;2090801;28;20032;-91
2023/01/29 03:20:50;;;;;;;17.02;10.82;;;;;;;;;;2089112;28;20028;-91
2023/01/29 03:21:59;;;;;;;16.60;10.43;;;;;;;;;;2096270;28;20021;-91
2023/01/29 03:23:08;;;;;;;15.15;10.70;;;;;;;;;;2096645;28;20496;-91
2023/01/29 03:42:54;;;;;;;21.92;14.50;;;;;;;;;;2386127;22;20044;-90
2023/01/29 03:44:13;;;;;;;19.38;13.52;;;;;;;;;;2095757;28;20036;-90
2023/01/29 03:45:26;;;;;;;21.40;13.65;;;;;;;;;;2096262;28;20403;-90
2023/01/29 03:46:51;;;;;;;21.35;13.90;;;;;;;;;;2097097;28;20020;-89
2023/01/29 03:48:09;;;;;;;22.48;13.82;;;;;;;;;;2095628;28;20030;-89
2023/01/29 03:49:23;;;;;;;20.50;14.13;;;;;;;;;;2096199;28;20422;-89
2023/01/29 03:50:30;;;;;;;21.08;14.45;;;;;;;;;;2095790;28;20036;-90
2023/01/29 03:51:49;;;;;;;20.95;13.43;;;;;;;;;;2096010;28;20092;-90
2023/01/29 03:52:59;;;;;;;21.95;13.50;;;;;;;;;;2096608;28;20091;-91
2023/01/29 03:54:17;;;;;;;24.02;14.60;;;;;;;;;;2090755;28;20020;-91
2023/01/29 03:55:42;;;;;;;21.88;13.98;;;;;;;;;;2091277;28;20103;-92
2023/01/29 03:57:11;;;;;;;22.08;14.40;;;;;;;;;;2098909;28;20031;-91
2023/01/29 03:58:26;;;;;;;20.85;13.43;;;;;;;;;;2090776;28;20085;-90
2023/01/29 03:59:45;;;;;;;20.27;13.70;;;;;;;;;;2099589;28;20070;-89
2023/01/29 04:00:55;;;;;;;22.60;14.15;;;;;;;;;;2096388;28;20043;-89
2023/01/29 04:02:26;;;;;;;23.65;14.30;;;;;;;;;;2096627;28;20368;-92
2023/01/29 04:03:39;;;;;;;21.60;14.95;;;;;;;;;;2105035;28;20104;-96
2023/01/29 04:05:23;;;;;;;22.67;14.75;;;;;;;;;;2099484;28;20032;-96
2023/01/29 04:06:31;;;;;;;25.08;14.90;;;;;;;;;;2096970;28;20095;-91
2023/01/29 04:07:33;;;;;;;23.02;14.60;;;;;;;;;;2096470;28;20020;-92
2023/01/29 04:08:43;;;;;;;23.15;14.25;;;;;;;;;;2096567;28;20025;-94
2023/01/29 04:10:08;;;;;;;23.25;15.10;;;;;;;;;;2089944;28;20132;-91
2023/01/29 04:11:13;;;;;;;24.45;14.18;;;;;;;;;;2091202;28;20092;-92
2023/01/29 04:12:20;;;;;;;22.38;14.15;;;;;;;;;;2088795;28;20020;-91
2023/01/29 04:13:22;;;;;;;23.27;15.10;;;;;;;;;;2096749;28;20402;-93
2023/01/29 04:14:23;;;;;;;23.58;14.27;;;;;;;;;;2095722;28;20483;-89
2023/01/29 04:15:26;;;;;;;;;;;;;;;;;;2087874;28;20111;-92
2023/01/29 04:16:32;;;;;;;24.38;14.02;;;;;;;;;;2096250;28;19913;-92
2023/01/29 04:17:42;;;;;;;21.67;14.65;;;;;;;;;;2095729;28;20025;-92
2023/01/29 04:18:48;;;;;;;23.42;15.05;;;;;;;;;;2096233;28;20024;-91
2023/01/29 04:19:49;;;;;;;22.45;15.10;;;;;;;;;;2096044;28;20024;-91
2023/01/29 04:20:49;;;;;;;;;;;;;;;;;;2096397;28;20016;-91
2023/01/29 04:21:58;;;;;;;24.80;14.17;;;;;;;;;;2095720;28;20327;-92
2023/01/29 04:22:59;;;;;;;24.17;15.55;;;;;;;;;;2096273;28;20094;-92
2023/01/29 04:23:59;;;;;;;;;;;;;;;;;;2096395;28;20096;-92
2023/01/29 04:25:07;;;;;;;21.90;13.90;;;;;;;;;;2096620;28;19912;-93
2023/01/29 04:28:25;;;;;;;23.23;14.52;;;;;;;;;;2085319;28;20403;-91
2023/01/29 04:30:10;;;;;;;21.45;14.27;;;;;;;;;;2095644;28;20035;-91
2023/01/29 04:31:12;;;;;;;25.98;16.77;;;;;;;;;;2092233;28;20059;-92
2023/01/29 04:32:12;;;;;;;24.65;15.43;;;;;;;;;;2087745;28;20424;-91
2023/01/29 04:33:31;;;;;;;;;;;;;;;;;;2088138;28;20040;-92
2023/01/29 04:34:55;;;;;;;20.58;13.77;;;;;;;;;;2096320;28;19908;-91
2023/01/29 04:36:17;;;;;;;23.08;15.23;;;;;;;;;;2095765;28;20024;-91
2023/01/29 04:37:32;;;;;;;21.27;14.48;;;;;;;;;;2096014;28;20017;-91
2023/01/29 04:38:49;;;;;;;19.05;13.20;;;;;;;;;;2096081;28;20024;-92
2023/01/29 04:39:59;;;;;;;22.75;15.82;;;;;;;;;;2095857;28;20039;-91
2023/01/29 04:41:26;;;;;;;25.40;15.63;;;;;;;;;;2088889;28;20048;-92
2023/01/29 04:42:55;;;;;;;24.05;13.85;;;;;;;;;;2090520;28;20029;-91
2023/01/29 04:44:02;;;;;;;22.77;14.55;;;;;;;;;;2090438;28;20478;-92
2023/01/29 04:45:41;;;;;;;23.55;14.07;;;;;;;;;;2088692;28;20027;-92
2023/01/29 04:46:54;;;;;;;21.88;13.43;;;;;;;;;;2103707;28;20028;-92
2023/01/29 04:48:19;;;;;;;21.52;14.30;;;;;;;;;;2097181;28;20025;-92
2023/01/29 04:49:36;;;;;;;21.50;14.25;;;;;;;;;;2079233;28;20134;-91
2023/01/29 04:50:44;;;;;;;22.63;14.65;;;;;;;;;;2089649;28;20035;-92
2023/01/29 04:52:03;;;;;;;20.27;14.05;;;;;;;;;;2088597;28;20494;-91
2023/01/29 04:53:18;;;;;;;22.67;13.57;;;;;;;;;;2095309;28;20021;-92
2023/01/29 04:54:33;;;;;;;20.20;13.15;;;;;;;;;;2089635;28;20019;-92
2023/01/29 04:56:14;;;;;;;24.98;15.00;;;;;;;;;;2089292;28;20308;-92
2023/01/29 04:57:25;;;;;;;22.42;15.07;;;;;;;;;;2096543;28;20489;-91
2023/01/29 04:58:31;;;;;;;24.25;14.30;;;;;;;;;;2096672;28;20033;-91
2023/01/29 04:59:39;;;;;;;26.48;14.38;;;;;;;;;;2095659;28;20066;-91
2023/01/29 05:00:42;;;;;;;23.88;14.60;;;;;;;;;;2088742;28;20132;-92
2023/01/29 05:01:44;;;;;;;21.27;14.13;;;;;;;;;;2072785;28;20591;-92
2023/01/29 05:02:45;;;;;;;31.50;16.85;;;;;;;;;;2088145;28;20086;-91
2023/01/29 05:03:51;;;;;;;49.97;22.95;;;;;;;;;;2084811;28;20052;-92
2023/01/29 05:04:53;;;;;;;23.60;14.40;;;;;;;;;;2096361;28;20040;-93
2023/01/29 05:05:56;;;;;;;28.67;17.08;;;;;;;;;;2096090;28;20043;-93
2023/01/29 05:06:57;;;;;;;26.95;15.77;;;;;;;;;;2088209;28;20082;-92
2023/01/29 05:07:58;;;;;;;25.23;15.13;;;;;;;;;;2096132;28;20093;-93
2023/01/29 05:08:59;;;;;;;;;;;;;;;;;;2096444;28;20024;-92
2023/01/29 05:10:00;;;;;;;23.35;14.75;;;;;;;;;;2087896;28;20007;-91
2023/01/29 05:12:30;;;;;;;24.48;13.73;;;;;;;;;;2151872;22;20336;-91
2023/01/29 05:13:33;;;;;;;24.80;15.30;;;;;;;;;;2098185;28;20040;-91
2023/01/29 05:14:34;;;;;;;26.00;15.88;;;;;;;;;;2087655;28;20029;-92
2023/01/29 05:15:40;;;;;;;23.88;14.70;;;;;;;;;;2087669;28;20050;-93
2023/01/29 05:16:50;;;;;;;24.85;15.85;;;;;;;;;;2088040;28;20029;-91
2023/01/29 05:17:52;;;;;;;27.38;19.65;;;;;;;;;;2089044;28;20095;-94
2023/01/29 05:18:53;;;;;;;28.88;18.60;;;;;;;;;;2096425;28;20024;-92
2023/01/29 05:19:57;;;;;;;;;;;;;;;;;;2096779;28;20431;-91
2023/01/29 05:21:01;;;;;;;30.00;18.15;;;;;;;;;;2095966;28;19913;-90
2023/01/29 05:22:05;;;;;;;25.63;16.77;;;;;;;;;;2087955;28;20025;-92
2023/01/29 05:23:19;;;;;;;29.52;17.90;;;;;;;;;;2088413;28;20025;-92
2023/01/29 05:24:22;;;;;;;26.13;17.65;;;;;;;;;;2089438;28;20257;-92
2023/01/29 05:25:28;;;;;;;27.73;17.55;;;;;;;;;;2088077;28;20440;-90
2023/01/29 05:28:15;;;;;;;31.13;18.90;;;;;;;;;;2096842;28;20024;-90
2023/01/29 05:29:16;;;;;;;26.38;17.48;;;;;;;;;;2096066;28;20129;-91
2023/01/29 05:30:17;;;;;;;29.10;18.77;;;;;;;;;;2095988;28;20113;-91
2023/01/29 05:31:20;;;;;;;;;;;;;;;;;;2096437;28;20522;-93
2023/01/29 05:32:20;;;;;;;25.75;16.40;;;;;;;;;;2095928;28;19912;-93
2023/01/29 05:33:28;;;;;;;;;;;;;;;;;;2088871;28;20029;-90
2023/01/29 05:34:28;;;;;;;28.48;17.92;;;;;;;;;;2096663;28;19908;-90
2023/01/29 05:35:29;;;;;;;;;;;;;;;;;;2088766;28;20468;-91
2023/01/29 05:36:32;;;;;;;25.83;15.50;;;;;;;;;;2096549;28;19953;-91
2023/01/29 05:37:35;;;;;;;26.92;17.45;;;;;;;;;;2096445;28;20036;-92
2023/01/29 05:38:38;;;;;;;30.08;18.67;;;;;;;;;;2092295;28;20024;-92
2023/01/29 05:39:38;;;;;;;31.80;17.98;;;;;;;;;;2092059;28;20029;-92
2023/01/29 05:40:39;;;;;;;;;;;;;;;;;;2088579;28;20028;-92
2023/01/29 05:41:39;;;;;;;28.03;17.83;;;;;;;;;;2087898;28;19988;-92
2023/01/29 05:42:39;;;;;;;;;;;;;;;;;;2096239;28;20025;-91
2023/01/29 05:43:40;;;;;;;26.10;16.33;;;;;;;;;;2089815;28;19912;-92
2023/01/29 05:44:40;;;;;;;31.27;20.25;;;;;;;;;;2091420;28;20032;-93
2023/01/29 05:45:41;;;;;;;;;;;;;;;;;;2095169;28;20060;-92
2023/01/29 05:46:42;;;;;;;28.90;16.50;;;;;;;;;;2095645;28;19936;-92
2023/01/29 05:47:43;;;;;;;26.17;16.83;;;;;;;;;;2089183;28;20043;-92
2023/01/29 05:48:43;;;;;;;;;;;;;;;;;;2088384;28;20029;-92
2023/01/29 05:49:46;;;;;;;25.90;15.63;;;;;;;;;;2096268;28;19973;-92
2023/01/29 05:50:53;;;;;;;31.33;19.77;;;;;;;;;;2096384;28;20036;-93
2023/01/29 05:51:54;;;;;;;26.27;16.77;;;;;;;;;;2096465;28;20036;-92
2023/01/29 05:52:58;;;;;;;;;;;;;;;;;;2096338;28;20029;-92
2023/01/29 05:53:58;;;;;;;28.30;16.48;;;;;;;;;;2096106;28;19908;-92
2023/01/29 05:54:58;;;;;;;;;;;;;;;;;;2091926;28;20048;-91
2023/01/29 05:56:03;;;;;;;25.40;15.83;;;;;;;;;;2097789;28;19963;-91
2023/01/29 05:57:04;;;;;;;28.10;16.63;;;;;;;;;;2098889;28;20040;-91
2023/01/29 05:58:05;;;;;;;;;;;;;;;;;;2104410;28;20086;-91
2023/01/29 05:59:06;;;;;;;27.43;16.03;;;;;;;;;;2103836;28;20002;-91
2023/01/29 06:00:08;;;;;;;28.20;16.85;;;;;;;;;;2103361;28;20024;-91
2023/01/29 06:01:13;;;;;;;30.00;17.27;;;;;;;;;;2095965;28;20024;-91
2023/01/29 06:02:24;;;;;;;28.13;16.55;;;;;;;;;;2094783;28;20047;-92
2023/01/29 06:03:24;;;;;;;26.77;17.02;;;;;;;;;;2098620;28;20028;-92
2023/01/29 06:04:25;;;;;;;;;;;;;;;;;;2096970;28;20106;-92
2023/01/29 06:05:25;;;;;;;25.83;14.70;;;;;;;;;;2097152;28;19908;-92
2023/01/29 06:06:26;;;;;;;;;;;;;;;;;;2097828;28;20103;-91
2023/01/29 06:07:26;;;;;;;33.07;20.90;;;;;;;;;;2089052;28;20007;-91
2023/01/29 06:08:27;;;;;;;30.33;16.63;;;;;;;;;;2088816;28;20041;-91
2023/01/29 06:09:27;;;;;;;29.20;18.17;;;;;;;;;;2097107;28;20024;-92
2023/01/29 06:10:27;;;;;;;;;;;;;;;;;;2098408;28;20060;-91
2023/01/29 06:11:28;;;;;;;30.00;16.27;;;;;;;;;;2096866;28;19920;-91
2023/01/29 06:12:28;;;;;;;;;;;;;;;;;;2089126;28;20486;-93
2023/01/29 06:13:31;;;;;;;33.40;19.43;;;;;;;;;;2089663;28;19916;-92
2023/01/29 06:14:32;;;;;;;31.70;19.83;;;;;;;;;;2090057;28;20028;-91
2023/01/29 06:15:32;;;;;;;32.80;19.85;;;;;;;;;;1746226;28;10244931;-91
2023/01/29 06:22:34;;;;;;;36.92;21.15;;;;;;;;;;233533;26;20415;-88
2023/01/29 06:23:34;;;;;;;;;;;;;;;;;;2095638;28;20124;-89
2023/01/29 06:24:34;;;;;;;34.50;19.43;;;;;;;;;;2096507;28;20011;-89
2023/01/29 06:25:35;;;;;;;;;;;;;;;;;;2088783;28;20032;-91
2023/01/29 06:26:35;;;;;;;32.67;17.13;;;;;;;;;;2097213;28;19912;-90
2023/01/29 06:27:36;;;;;;;;;;;;;;;;;;2097536;28;20035;-91
2023/01/29 06:28:36;;;;;;;29.03;16.93;;;;;;;;;;2096743;28;19908;-90
2023/01/29 06:29:37;;;;;;;30.52;19.48;;;;;;;;;;2096764;28;20035;-91
2023/01/29 06:30:37;;;;;;;;;;;;;;;;;;2089713;28;20035;-91
2023/01/29 06:31:37;;;;;;;47.83;34.93;;;;;;;;;;2101615;28;19909;-90
2023/01/29 06:32:38;;;;;;;;;;;;;;;;;;2091865;28;20040;-90
2023/01/29 06:33:38;;;;;;;33.33;20.37;;;;;;;;;;2088396;28;19916;-90
2023/01/29 06:34:38;;;;;;;;;;;;;;;;;;2097035;28;20174;-91
2023/01/29 06:35:39;;;;;;;32.90;18.83;;;;;;;;;;2096645;28;19908;-91
2023/01/29 06:36:40;;;;;;;;;;;;;;;;;;2097275;28;20541;-90
2023/01/29 06:37:41;;;;;;;30.02;19.48;;;;;;;;;;2097456;28;19969;-89
2023/01/29 06:38:41;;;;;;;36.45;22.05;;;;;;;;;;2096709;28;20079;-90
2023/01/29 06:39:42;;;;;;;34.92;22.92;;;;;;;;;;2096899;28;20099;-92
2023/01/29 06:41:04;;;;;;;;;;;;;;;;;;2099862;28;20039;-92
2023/01/29 06:42:10;;;;;;;33.35;21.10;;;;;;;;;;1544437;28;10096999;-91
2023/01/29 06:43:12;;;;;;;36.55;22.65;;;;;;;;;;2097106;28;20393;-91
2023/01/29 06:44:13;;;;;;;33.05;22.30;;;;;;;;;;2099211;28;20020;-91
2023/01/29 06:45:13;;;;;;;;;;;;;;;;;;2097646;28;20094;-91
2023/01/29 06:46:19;;;;;;;37.27;22.23;;;;;;;;;;2097282;28;20354;-91
2023/01/29 06:47:43;;;;;;;38.63;22.88;;;;;;;;;;2097416;28;20447;-91
2023/01/29 06:48:43;;;;;;;44.03;28.00;;;;;;;;;;2091698;28;20028;-90
2023/01/29 06:49:43;;;;;;;;;;;;;;;;;;2088424;28;20095;-90
2023/01/29 06:50:44;;;;;;;38.95;23.63;;;;;;;;;;1920261;28;5001526;-91
2023/01/29 06:51:45;;;;;;;41.63;23.77;;;;;;;;;;2088160;28;20032;-91
2023/01/29 06:52:45;;;;;;;;;;;;;;;;;;2082915;28;20033;-92
2023/01/29 06:53:46;;;;;;;37.30;22.10;;;;;;;;;;2088561;28;20416;-91
2023/01/29 06:54:46;;;;;;;;;;;;;;;;;;2097634;28;20503;-92
2023/01/29 06:55:52;;;;;;;41.77;25.27;;;;;;;;;;2096718;28;20414;-91
2023/01/29 06:56:53;;;;;;;39.70;24.38;;;;;;;;;;2089040;28;20033;-92
2023/01/29 06:57:53;;;;;;;;;;;;;;;;;;2088867;28;20104;-90
2023/01/29 06:58:56;;;;;;;49.90;25.90;;;;;;;;;;2096949;28;20314;-91
2023/01/29 07:00:05;;;;;;;39.28;24.23;;;;;;;;;;2097967;28;20048;-92
2023/01/29 07:01:13;;;;;;;41.35;24.58;;;;;;;;;;2097876;28;20012;-93
2023/01/29 07:02:14;;;;;;;43.15;25.85;;;;;;;;;;2088983;28;20079;-92
2023/01/29 07:03:14;;;;;;;;;;;;;;;;;;2089664;28;20035;-92
2023/01/29 07:04:22;;;;;;;41.97;23.93;;;;;;;;;;2098090;28;19919;-92
2023/01/29 07:05:28;;;;;;;38.72;23.17;;;;;;;;;;2090197;28;20024;-93
2023/01/29 07:06:32;;;;;;;41.88;24.88;;;;;;;;;;2089840;28;20070;-93
2023/01/29 07:07:37;;;;;;;49.20;28.23;;;;;;;;;;2090089;28;20033;-95
2023/01/29 07:08:40;;;;;;;43.60;26.35;;;;;;;;;;2096867;28;20110;-92
2023/01/29 07:10:01;;;;;;;38.80;22.98;;;;;;;;;;2089959;28;20086;-95
2023/01/29 07:11:04;;;;;;;40.65;24.70;;;;;;;;;;2091623;28;20043;-93
2023/01/29 07:12:04;;;;;;;38.78;23.67;;;;;;;;;;2089852;28;20261;-93
2023/01/29 07:13:05;;;;;;;;;;;;;;;;;;2089830;28;20566;-94
2023/01/29 07:14:06;;;;;;;39.17;23.33;;;;;;;;;;2089438;28;20395;-94
2023/01/29 07:15:07;;;;;;;36.38;23.05;;;;;;;;;;2088596;28;20029;-93
2023/01/29 07:16:08;;;;;;;38.83;22.75;;;;;;;;;;2089470;28;20017;-93
2023/01/29 07:17:11;;;;;;;34.88;22.38;;;;;;;;;;2097773;28;20107;-93
2023/01/29 07:18:11;;;;;;;35.03;23.52;;;;;;;;;;2106321;28;20077;-93
2023/01/29 07:19:16;;;;;;;;;;;;;;;;;;2097949;28;20096;-93
2023/01/29 07:20:22;;;;;;;31.83;20.75;;;;;;;;;;2097775;28;20390;-93
2023/01/29 07:21:22;;;;;;;33.28;20.50;;;;;;;;;;2097818;28;20138;-93
2023/01/29 07:22:23;;;;;;;;;;;;;;;;;;2098378;28;20050;-94
2023/01/29 07:23:29;;;;;;;33.03;22.37;;;;;;;;;;2098908;28;19995;-93
2023/01/29 07:24:32;;;;;;;33.97;20.45;;;;;;;;;;2104188;28;20029;-94
2023/01/29 07:25:42;;;;;;;34.25;21.10;;;;;;;;;;2104019;28;20106;-93